Terminal Aerodrome Forecast
Issued by NWS

Home | Current Version | Previous Version | Graphics & Text | Print | Product List | Glossary On
Versions: 1 2 3 4 5 6 7 8 9 10 11 12 13 14 15 16 17
000
FTUS43 KICT 252057 AAA
TAFRSL
TAF AMD
KRSL 252057Z 2521/2618 01022G30KT P6SM BKN040 OVC100
     FM252200 02022G32KT 6SM -RA SCT015 OVC025
     FM260200 36010KT P6SM SCT025 BKN100
     FM261200 26005KT P6SM SCT250=

USA.gov is the U.S. government's official web portal to all federal, state and local government web resources and services.